sensor_id;sensor_type;location;lat;lon;timestamp;temperature;humidity
8707;DHT22;4390;49.302;9.306;2022-07-23T00:00:19;26.10;76.60
8707;DHT22;4390;49.302;9.306;2022-07-23T00:02:46;26.00;76.90
8707;DHT22;4390;49.302;9.306;2022-07-23T00:05:13;25.90;76.90
8707;DHT22;4390;49.302;9.306;2022-07-23T00:07:40;25.90;76.60
8707;DHT22;4390;49.302;9.306;2022-07-23T00:10:08;26.00;76.50
8707;DHT22;4390;49.302;9.306;2022-07-23T00:12:38;26.00;76.40
8707;DHT22;4390;49.302;9.306;2022-07-23T00:15:18;26.00;76.30
8707;DHT22;4390;49.302;9.306;2022-07-23T00:17:45;25.90;76.20
8707;DHT22;4390;49.302;9.306;2022-07-23T00:20:12;25.90;76.30
8707;DHT22;4390;49.302;9.306;2022-07-23T00:22:50;25.90;76.20
8707;DHT22;4390;49.302;9.306;2022-07-23T00:25:18;25.90;76.40
8707;DHT22;4390;49.302;9.306;2022-07-23T00:27:56;25.90;76.70
8707;DHT22;4390;49.302;9.306;2022-07-23T00:30:23;25.80;77.10
8707;DHT22;4390;49.302;9.306;2022-07-23T00:32:53;25.70;77.40
8707;DHT22;4390;49.302;9.306;2022-07-23T00:35:24;25.60;77.50
8707;DHT22;4390;49.302;9.306;2022-07-23T00:37:51;25.60;77.30
8707;DHT22;4390;49.302;9.306;2022-07-23T00:40:18;25.70;77.30
8707;DHT22;4390;49.302;9.306;2022-07-23T00:42:45;25.70;77.30
8707;DHT22;4390;49.302;9.306;2022-07-23T00:45:12;25.60;77.40
8707;DHT22;4390;49.302;9.306;2022-07-23T00:47:39;25.50;77.80
8707;DHT22;4390;49.302;9.306;2022-07-23T00:50:08;25.50;77.70
8707;DHT22;4390;49.302;9.306;2022-07-23T00:52:36;25.50;77.50
8707;DHT22;4390;49.302;9.306;2022-07-23T00:55:06;25.50;77.30
8707;DHT22;4390;49.302;9.306;2022-07-23T00:57:33;25.60;77.30
8707;DHT22;4390;49.302;9.306;2022-07-23T01:00:01;25.60;77.20
8707;DHT22;4390;49.302;9.306;2022-07-23T01:02:28;25.50;77.10
8707;DHT22;4390;49.302;9.306;2022-07-23T01:04:55;25.40;77.50
8707;DHT22;4390;49.302;9.306;2022-07-23T01:07:22;25.20;78.00
8707;DHT22;4390;49.302;9.306;2022-07-23T01:09:51;25.20;78.40
8707;DHT22;4390;49.302;9.306;2022-07-23T01:12:18;25.20;78.50
8707;DHT22;4390;49.302;9.306;2022-07-23T01:14:45;25.10;78.70
8707;DHT22;4390;49.302;9.306;2022-07-23T01:17:11;25.10;78.60
8707;DHT22;4390;49.302;9.306;2022-07-23T01:19:38;25.10;78.50
8707;DHT22;4390;49.302;9.306;2022-07-23T01:22:06;25.10;78.20
8707;DHT22;4390;49.302;9.306;2022-07-23T01:24:33;25.10;78.20
8707;DHT22;4390;49.302;9.306;2022-07-23T01:27:03;25.10;78.30
8707;DHT22;4390;49.302;9.306;2022-07-23T01:29:34;25.00;78.50
8707;DHT22;4390;49.302;9.306;2022-07-23T01:32:05;25.00;78.60
8707;DHT22;4390;49.302;9.306;2022-07-23T01:34:32;24.90;78.70
8707;DHT22;4390;49.302;9.306;2022-07-23T01:36:59;24.90;78.50
8707;DHT22;4390;49.302;9.306;2022-07-23T01:39:26;24.90;78.50
8707;DHT22;4390;49.302;9.306;2022-07-23T01:41:53;24.90;78.60
8707;DHT22;4390;49.302;9.306;2022-07-23T01:44:21;24.90;78.50
8707;DHT22;4390;49.302;9.306;2022-07-23T01:46:48;24.90;78.70
8707;DHT22;4390;49.302;9.306;2022-07-23T01:49:17;24.90;78.70
8707;DHT22;4390;49.302;9.306;2022-07-23T01:52:04;24.90;78.60
8707;DHT22;4390;49.302;9.306;2022-07-23T01:54:44;24.90;78.60
8707;DHT22;4390;49.302;9.306;2022-07-23T01:57:11;24.80;78.60
8707;DHT22;4390;49.302;9.306;2022-07-23T01:59:38;24.80;78.60
8707;DHT22;4390;49.302;9.306;2022-07-23T02:02:11;24.80;78.50
8707;DHT22;4390;49.302;9.306;2022-07-23T02:04:38;24.80;78.50
8707;DHT22;4390;49.302;9.306;2022-07-23T02:07:05;24.80;78.90
8707;DHT22;4390;49.302;9.306;2022-07-23T02:09:32;24.60;79.10
8707;DHT22;4390;49.302;9.306;2022-07-23T02:11:59;24.50;79.40
8707;DHT22;4390;49.302;9.306;2022-07-23T02:14:27;24.40;79.60
8707;DHT22;4390;49.302;9.306;2022-07-23T02:16:54;24.40;79.50
8707;DHT22;4390;49.302;9.306;2022-07-23T02:19:21;24.40;79.40
8707;DHT22;4390;49.302;9.306;2022-07-23T02:21:48;24.40;79.40
8707;DHT22;4390;49.302;9.306;2022-07-23T02:24:18;24.40;79.40
8707;DHT22;4390;49.302;9.306;2022-07-23T02:26:45;24.40;79.60
8707;DHT22;4390;49.302;9.306;2022-07-23T02:29:12;24.40;79.60
8707;DHT22;4390;49.302;9.306;2022-07-23T02:31:39;24.30;79.60
8707;DHT22;4390;49.302;9.306;2022-07-23T02:34:07;24.30;79.50
8707;DHT22;4390;49.302;9.306;2022-07-23T02:36:36;24.10;79.90
8707;DHT22;4390;49.302;9.306;2022-07-23T02:39:05;24.00;80.30
8707;DHT22;4390;49.302;9.306;2022-07-23T02:41:34;23.90;80.50
8707;DHT22;4390;49.302;9.306;2022-07-23T02:44:01;23.90;80.60
8707;DHT22;4390;49.302;9.306;2022-07-23T02:46:28;23.90;80.60
8707;DHT22;4390;49.302;9.306;2022-07-23T02:48:56;23.90;80.50
8707;DHT22;4390;49.302;9.306;2022-07-23T02:51:24;23.90;80.50
8707;DHT22;4390;49.302;9.306;2022-07-23T02:53:56;23.90;80.50
8707;DHT22;4390;49.302;9.306;2022-07-23T02:56:23;23.90;80.50
8707;DHT22;4390;49.302;9.306;2022-07-23T02:58:49;23.90;80.70
8707;DHT22;4390;49.302;9.306;2022-07-23T03:01:19;23.90;80.90
8707;DHT22;4390;49.302;9.306;2022-07-23T03:03:47;23.80;81.00
8707;DHT22;4390;49.302;9.306;2022-07-23T03:06:14;23.80;81.00
8707;DHT22;4390;49.302;9.306;2022-07-23T03:08:41;23.80;81.10
8707;DHT22;4390;49.302;9.306;2022-07-23T03:11:08;23.70;81.20
8707;DHT22;4390;49.302;9.306;2022-07-23T03:13:39;23.70;81.30
8707;DHT22;4390;49.302;9.306;2022-07-23T03:16:07;23.70;81.30
8707;DHT22;4390;49.302;9.306;2022-07-23T03:18:36;23.70;81.40
8707;DHT22;4390;49.302;9.306;2022-07-23T03:21:07;23.60;81.60
8707;DHT22;4390;49.302;9.306;2022-07-23T03:23:34;23.50;81.70
8707;DHT22;4390;49.302;9.306;2022-07-23T03:26:01;23.50;81.50
8707;DHT22;4390;49.302;9.306;2022-07-23T03:28:28;23.50;81.40
8707;DHT22;4390;49.302;9.306;2022-07-23T03:30:55;23.40;81.70
8707;DHT22;4390;49.302;9.306;2022-07-23T03:33:22;23.40;81.90
8707;DHT22;4390;49.302;9.306;2022-07-23T03:35:49;23.40;81.90
8707;DHT22;4390;49.302;9.306;2022-07-23T03:38:23;23.40;82.10
8707;DHT22;4390;49.302;9.306;2022-07-23T03:40:50;23.50;82.00
8707;DHT22;4390;49.302;9.306;2022-07-23T03:43:17;23.50;81.80
8707;DHT22;4390;49.302;9.306;2022-07-23T03:45:45;23.60;81.70
8707;DHT22;4390;49.302;9.306;2022-07-23T03:48:11;23.70;81.60
8707;DHT22;4390;49.302;9.306;2022-07-23T03:50:38;23.70;81.40
8707;DHT22;4390;49.302;9.306;2022-07-23T03:53:05;23.70;81.30
8707;DHT22;4390;49.302;9.306;2022-07-23T03:55:34;23.70;81.40
8707;DHT22;4390;49.302;9.306;2022-07-23T03:58:01;23.80;81.30
8707;DHT22;4390;49.302;9.306;2022-07-23T04:00:28;23.70;81.20
8707;DHT22;4390;49.302;9.306;2022-07-23T04:02:55;23.70;81.10
8707;DHT22;4390;49.302;9.306;2022-07-23T04:05:22;23.80;81.10
8707;DHT22;4390;49.302;9.306;2022-07-23T04:07:52;23.90;81.10
8707;DHT22;4390;49.302;9.306;2022-07-23T04:10:20;23.90;81.00
8707;DHT22;4390;49.302;9.306;2022-07-23T04:12:47;23.90;80.90
8707;DHT22;4390;49.302;9.306;2022-07-23T04:15:14;23.90;80.90
8707;DHT22;4390;49.302;9.306;2022-07-23T04:17:41;24.00;81.00
8707;DHT22;4390;49.302;9.306;2022-07-23T04:20:11;24.00;80.80
8707;DHT22;4390;49.302;9.306;2022-07-23T04:22:44;24.10;80.70
8707;DHT22;4390;49.302;9.306;2022-07-23T04:25:11;24.10;80.50
8707;DHT22;4390;49.302;9.306;2022-07-23T04:27:40;24.10;80.50
8707;DHT22;4390;49.302;9.306;2022-07-23T04:30:07;24.20;80.20
8707;DHT22;4390;49.302;9.306;2022-07-23T04:32:34;24.20;80.10
8707;DHT22;4390;49.302;9.306;2022-07-23T04:35:04;24.20;80.00
8707;DHT22;4390;49.302;9.306;2022-07-23T04:37:31;24.30;79.90
8707;DHT22;4390;49.302;9.306;2022-07-23T04:39:58;24.30;79.80
8707;DHT22;4390;49.302;9.306;2022-07-23T04:42:26;24.40;79.60
8707;DHT22;4390;49.302;9.306;2022-07-23T04:44:53;24.40;79.60
8707;DHT22;4390;49.302;9.306;2022-07-23T04:47:20;24.40;79.70
8707;DHT22;4390;49.302;9.306;2022-07-23T04:49:49;24.50;79.70
8707;DHT22;4390;49.302;9.306;2022-07-23T04:52:15;24.50;79.60
8707;DHT22;4390;49.302;9.306;2022-07-23T04:54:43;24.60;79.50
8707;DHT22;4390;49.302;9.306;2022-07-23T04:57:09;24.60;79.40
8707;DHT22;4390;49.302;9.306;2022-07-23T04:59:36;24.60;79.10
8707;DHT22;4390;49.302;9.306;2022-07-23T05:02:04;24.50;78.70
8707;DHT22;4390;49.302;9.306;2022-07-23T05:04:31;24.50;78.60
8707;DHT22;4390;49.302;9.306;2022-07-23T05:06:58;24.40;78.70
8707;DHT22;4390;49.302;9.306;2022-07-23T05:09:25;24.40;78.70
8707;DHT22;4390;49.302;9.306;2022-07-23T05:11:53;24.40;78.80
8707;DHT22;4390;49.302;9.306;2022-07-23T05:14:20;24.40;78.80
8707;DHT22;4390;49.302;9.306;2022-07-23T05:16:48;24.40;78.50
8707;DHT22;4390;49.302;9.306;2022-07-23T05:19:20;24.50;78.60
8707;DHT22;4390;49.302;9.306;2022-07-23T05:21:51;24.50;78.50
8707;DHT22;4390;49.302;9.306;2022-07-23T05:24:18;24.50;78.40
8707;DHT22;4390;49.302;9.306;2022-07-23T05:26:45;24.50;78.40
8707;DHT22;4390;49.302;9.306;2022-07-23T05:29:12;24.50;78.40
8707;DHT22;4390;49.302;9.306;2022-07-23T05:31:39;24.50;78.30
8707;DHT22;4390;49.302;9.306;2022-07-23T05:34:06;24.50;78.30
8707;DHT22;4390;49.302;9.306;2022-07-23T05:36:37;24.60;78.20
8707;DHT22;4390;49.302;9.306;2022-07-23T05:39:05;24.70;78.10
8707;DHT22;4390;49.302;9.306;2022-07-23T05:41:35;24.70;77.90
8707;DHT22;4390;49.302;9.306;2022-07-23T05:44:03;24.70;78.30
8707;DHT22;4390;49.302;9.306;2022-07-23T05:46:31;24.70;78.20
8707;DHT22;4390;49.302;9.306;2022-07-23T05:49:03;24.80;77.90
8707;DHT22;4390;49.302;9.306;2022-07-23T05:51:50;24.80;78.30
8707;DHT22;4390;49.302;9.306;2022-07-23T05:54:25;24.80;78.50
8707;DHT22;4390;49.302;9.306;2022-07-23T05:56:52;24.80;79.20
8707;DHT22;4390;49.302;9.306;2022-07-23T05:59:19;24.80;79.50
8707;DHT22;4390;49.302;9.306;2022-07-23T06:01:46;24.70;80.20
8707;DHT22;4390;49.302;9.306;2022-07-23T06:04:15;24.70;79.90
8707;DHT22;4390;49.302;9.306;2022-07-23T06:06:51;24.60;79.70
8707;DHT22;4390;49.302;9.306;2022-07-23T06:09:18;24.60;80.20
8707;DHT22;4390;49.302;9.306;2022-07-23T06:11:45;24.60;79.80
8707;DHT22;4390;49.302;9.306;2022-07-23T06:14:12;24.60;80.60
8707;DHT22;4390;49.302;9.306;2022-07-23T06:16:55;24.60;81.10
8707;DHT22;4390;49.302;9.306;2022-07-23T06:19:22;24.60;81.30
8707;DHT22;4390;49.302;9.306;2022-07-23T06:21:49;24.60;81.50
8707;DHT22;4390;49.302;9.306;2022-07-23T06:24:16;24.50;81.80
8707;DHT22;4390;49.302;9.306;2022-07-23T06:26:43;24.50;81.70
8707;DHT22;4390;49.302;9.306;2022-07-23T06:29:11;24.50;81.70
8707;DHT22;4390;49.302;9.306;2022-07-23T06:31:38;24.40;82.10
8707;DHT22;4390;49.302;9.306;2022-07-23T06:34:05;24.40;82.40
8707;DHT22;4390;49.302;9.306;2022-07-23T06:36:34;24.30;83.20
8707;DHT22;4390;49.302;9.306;2022-07-23T06:39:01;24.30;83.40
8707;DHT22;4390;49.302;9.306;2022-07-23T06:41:29;24.20;83.90
8707;DHT22;4390;49.302;9.306;2022-07-23T06:43:57;24.10;84.40
8707;DHT22;4390;49.302;9.306;2022-07-23T06:46:24;24.10;84.60
8707;DHT22;4390;49.302;9.306;2022-07-23T06:48:52;24.20;84.40
8707;DHT22;4390;49.302;9.306;2022-07-23T06:51:19;24.30;83.40
8707;DHT22;4390;49.302;9.306;2022-07-23T06:53:46;24.40;82.90
8707;DHT22;4390;49.302;9.306;2022-07-23T06:56:12;24.50;82.10
8707;DHT22;4390;49.302;9.306;2022-07-23T06:58:39;24.60;81.60
8707;DHT22;4390;49.302;9.306;2022-07-23T07:01:06;24.50;81.90
8707;DHT22;4390;49.302;9.306;2022-07-23T07:03:34;24.50;81.20
8707;DHT22;4390;49.302;9.306;2022-07-23T07:06:01;24.60;81.10
8707;DHT22;4390;49.302;9.306;2022-07-23T07:08:28;24.70;81.10
8707;DHT22;4390;49.302;9.306;2022-07-23T07:10:55;24.70;80.70
8707;DHT22;4390;49.302;9.306;2022-07-23T07:13:22;24.80;80.70
8707;DHT22;4390;49.302;9.306;2022-07-23T07:15:49;24.80;80.90
8707;DHT22;4390;49.302;9.306;2022-07-23T07:18:16;24.80;80.90
8707;DHT22;4390;49.302;9.306;2022-07-23T07:20:43;24.90;81.10
8707;DHT22;4390;49.302;9.306;2022-07-23T07:23:09;25.00;81.20
8707;DHT22;4390;49.302;9.306;2022-07-23T07:25:37;25.00;80.80
8707;DHT22;4390;49.302;9.306;2022-07-23T07:28:04;24.90;80.60
8707;DHT22;4390;49.302;9.306;2022-07-23T07:30:31;24.90;81.00
8707;DHT22;4390;49.302;9.306;2022-07-23T07:33:00;24.90;81.30
8707;DHT22;4390;49.302;9.306;2022-07-23T07:35:27;24.70;81.30
8707;DHT22;4390;49.302;9.306;2022-07-23T07:37:54;24.70;81.30
8707;DHT22;4390;49.302;9.306;2022-07-23T07:40:21;24.80;81.30
8707;DHT22;4390;49.302;9.306;2022-07-23T07:42:50;24.90;81.00
8707;DHT22;4390;49.302;9.306;2022-07-23T07:45:19;25.00;80.70
8707;DHT22;4390;49.302;9.306;2022-07-23T07:47:46;25.10;80.40
8707;DHT22;4390;49.302;9.306;2022-07-23T07:50:13;25.20;80.10
8707;DHT22;4390;49.302;9.306;2022-07-23T07:52:40;25.20;80.30
8707;DHT22;4390;49.302;9.306;2022-07-23T07:55:08;25.20;80.30
8707;DHT22;4390;49.302;9.306;2022-07-23T07:57:36;25.30;79.80
8707;DHT22;4390;49.302;9.306;2022-07-23T08:00:05;25.40;79.80
8707;DHT22;4390;49.302;9.306;2022-07-23T08:02:54;25.30;79.60
8707;DHT22;4390;49.302;9.306;2022-07-23T08:05:28;25.30;79.70
8707;DHT22;4390;49.302;9.306;2022-07-23T08:08:01;25.30;79.70
8707;DHT22;4390;49.302;9.306;2022-07-23T08:10:29;25.40;79.40
8707;DHT22;4390;49.302;9.306;2022-07-23T08:12:58;25.50;79.20
8707;DHT22;4390;49.302;9.306;2022-07-23T08:15:28;25.50;79.10
8707;DHT22;4390;49.302;9.306;2022-07-23T08:17:56;25.40;79.30
8707;DHT22;4390;49.302;9.306;2022-07-23T08:20:27;25.40;79.40
8707;DHT22;4390;49.302;9.306;2022-07-23T08:25:26;25.70;78.40
8707;DHT22;4390;49.302;9.306;2022-07-23T08:27:54;25.80;78.10
8707;DHT22;4390;49.302;9.306;2022-07-23T08:30:22;25.90;77.90
8707;DHT22;4390;49.302;9.306;2022-07-23T08:35:25;25.90;77.90
8707;DHT22;4390;49.302;9.306;2022-07-23T08:37:53;25.80;77.90
8707;DHT22;4390;49.302;9.306;2022-07-23T08:40:21;25.80;77.70
8707;DHT22;4390;49.302;9.306;2022-07-23T08:42:49;25.70;78.30
8707;DHT22;4390;49.302;9.306;2022-07-23T08:45:19;25.80;77.90
8707;DHT22;4390;49.302;9.306;2022-07-23T08:47:56;25.90;77.20
8707;DHT22;4390;49.302;9.306;2022-07-23T08:50:28;25.90;77.10
8707;DHT22;4390;49.302;9.306;2022-07-23T08:52:56;25.70;76.80
8707;DHT22;4390;49.302;9.306;2022-07-23T08:55:25;25.50;77.30
8707;DHT22;4390;49.302;9.306;2022-07-23T08:57:53;25.60;77.50
8707;DHT22;4390;49.302;9.306;2022-07-23T09:00:21;25.70;77.60
8707;DHT22;4390;49.302;9.306;2022-07-23T09:02:49;25.90;77.40
8707;DHT22;4390;49.302;9.306;2022-07-23T09:05:18;26.00;77.30
8707;DHT22;4390;49.302;9.306;2022-07-23T09:10:47;26.40;76.50
8707;DHT22;4390;49.302;9.306;2022-07-23T09:13:32;26.50;76.50
8707;DHT22;4390;49.302;9.306;2022-07-23T09:18:49;26.70;76.40
8707;DHT22;4390;49.302;9.306;2022-07-23T09:21:28;26.60;76.30
8707;DHT22;4390;49.302;9.306;2022-07-23T09:24:07;26.60;76.60
8707;DHT22;4390;49.302;9.306;2022-07-23T09:26:47;26.80;76.30
8707;DHT22;4390;49.302;9.306;2022-07-23T09:29:20;27.00;75.80
8707;DHT22;4390;49.302;9.306;2022-07-23T09:32:01;27.20;75.30
8707;DHT22;4390;49.302;9.306;2022-07-23T09:34:41;27.20;75.30
8707;DHT22;4390;49.302;9.306;2022-07-23T09:37:18;27.40;75.10
8707;DHT22;4390;49.302;9.306;2022-07-23T09:39:47;27.30;75.20
8707;DHT22;4390;49.302;9.306;2022-07-23T09:42:19;27.30;75.20
8707;DHT22;4390;49.302;9.306;2022-07-23T09:44:52;27.30;75.40
8707;DHT22;4390;49.302;9.306;2022-07-23T09:47:22;27.30;75.40
8707;DHT22;4390;49.302;9.306;2022-07-23T09:50:04;27.40;75.40
8707;DHT22;4390;49.302;9.306;2022-07-23T09:52:47;27.70;74.90
8707;DHT22;4390;49.302;9.306;2022-07-23T09:55:31;27.90;74.10
8707;DHT22;4390;49.302;9.306;2022-07-23T09:58:12;28.00;74.40
8707;DHT22;4390;49.302;9.306;2022-07-23T10:00:42;28.20;74.70
8707;DHT22;4390;49.302;9.306;2022-07-23T10:03:14;28.40;74.30
8707;DHT22;4390;49.302;9.306;2022-07-23T10:06:00;28.60;74.40
8707;DHT22;4390;49.302;9.306;2022-07-23T10:08:28;28.60;74.30
8707;DHT22;4390;49.302;9.306;2022-07-23T10:11:07;28.80;74.10
8707;DHT22;4390;49.302;9.306;2022-07-23T10:13:48;28.90;73.40
8707;DHT22;4390;49.302;9.306;2022-07-23T10:16:42;29.10;72.60
8707;DHT22;4390;49.302;9.306;2022-07-23T10:19:17;29.30;72.40
8707;DHT22;4390;49.302;9.306;2022-07-23T10:21:50;29.30;72.50
8707;DHT22;4390;49.302;9.306;2022-07-23T10:29:47;29.10;72.60
8707;DHT22;4390;49.302;9.306;2022-07-23T10:32:34;29.40;72.30
8707;DHT22;4390;49.302;9.306;2022-07-23T10:35:23;29.40;71.80
8707;DHT22;4390;49.302;9.306;2022-07-23T10:38:01;29.30;72.50
8707;DHT22;4390;49.302;9.306;2022-07-23T10:40:30;29.50;72.40
8707;DHT22;4390;49.302;9.306;2022-07-23T10:42:59;29.70;72.20
8707;DHT22;4390;49.302;9.306;2022-07-23T10:45:35;29.90;72.10
8707;DHT22;4390;49.302;9.306;2022-07-23T10:48:22;30.00;71.60
8707;DHT22;4390;49.302;9.306;2022-07-23T10:51:13;30.10;71.40
8707;DHT22;4390;49.302;9.306;2022-07-23T10:53:56;30.20;71.20
8707;DHT22;4390;49.302;9.306;2022-07-23T10:56:49;30.20;71.10
8707;DHT22;4390;49.302;9.306;2022-07-23T10:59:16;30.20;71.10
8707;DHT22;4390;49.302;9.306;2022-07-23T11:01:43;30.30;70.90
8707;DHT22;4390;49.302;9.306;2022-07-23T11:04:10;30.50;70.60
8707;DHT22;4390;49.302;9.306;2022-07-23T11:15:02;30.60;67.30
8707;DHT22;4390;49.302;9.306;2022-07-23T11:17:32;30.60;67.40
8707;DHT22;4390;49.302;9.306;2022-07-23T11:22:54;31.00;66.70
8707;DHT22;4390;49.302;9.306;2022-07-23T11:27:50;31.30;65.00
8707;DHT22;4390;49.302;9.306;2022-07-23T11:36:00;31.40;64.20
8707;DHT22;4390;49.302;9.306;2022-07-23T11:38:30;31.40;64.60
8707;DHT22;4390;49.302;9.306;2022-07-23T11:40:58;31.50;62.90
8707;DHT22;4390;49.302;9.306;2022-07-23T11:43:25;31.60;62.30
8707;DHT22;4390;49.302;9.306;2022-07-23T11:45:57;31.50;62.80
8707;DHT22;4390;49.302;9.306;2022-07-23T11:48:30;31.50;63.30
8707;DHT22;4390;49.302;9.306;2022-07-23T11:50:57;31.60;63.00
8707;DHT22;4390;49.302;9.306;2022-07-23T11:53:27;31.80;63.00
8707;DHT22;4390;49.302;9.306;2022-07-23T11:56:05;31.80;63.10
8707;DHT22;4390;49.302;9.306;2022-07-23T11:58:33;31.70;63.50
8707;DHT22;4390;49.302;9.306;2022-07-23T12:01:00;31.80;64.00
8707;DHT22;4390;49.302;9.306;2022-07-23T12:03:27;31.90;63.80
8707;DHT22;4390;49.302;9.306;2022-07-23T12:05:58;32.00;63.40
8707;DHT22;4390;49.302;9.306;2022-07-23T12:08:25;32.10;63.10
8707;DHT22;4390;49.302;9.306;2022-07-23T12:10:52;32.10;62.60
8707;DHT22;4390;49.302;9.306;2022-07-23T12:13:21;32.20;62.50
8707;DHT22;4390;49.302;9.306;2022-07-23T12:15:53;32.00;62.10
8707;DHT22;4390;49.302;9.306;2022-07-23T12:18:24;31.90;62.10
8707;DHT22;4390;49.302;9.306;2022-07-23T12:20:57;31.80;62.80
8707;DHT22;4390;49.302;9.306;2022-07-23T12:23:26;31.90;63.20
8707;DHT22;4390;49.302;9.306;2022-07-23T12:25:53;32.10;62.90
8707;DHT22;4390;49.302;9.306;2022-07-23T12:28:21;32.30;62.60
8707;DHT22;4390;49.302;9.306;2022-07-23T12:30:50;32.70;61.60
8707;DHT22;4390;49.302;9.306;2022-07-23T12:33:33;32.70;61.60
8707;DHT22;4390;49.302;9.306;2022-07-23T12:36:03;32.70;61.70
8707;DHT22;4390;49.302;9.306;2022-07-23T12:38:47;32.60;61.90
8707;DHT22;4390;49.302;9.306;2022-07-23T12:41:15;32.70;62.00
8707;DHT22;4390;49.302;9.306;2022-07-23T12:43:44;32.90;61.80
8707;DHT22;4390;49.302;9.306;2022-07-23T12:46:16;32.90;61.70
8707;DHT22;4390;49.302;9.306;2022-07-23T12:51:27;32.60;61.60
8707;DHT22;4390;49.302;9.306;2022-07-23T12:56:34;32.70;62.20
8707;DHT22;4390;49.302;9.306;2022-07-23T13:01:35;32.80;61.80
8707;DHT22;4390;49.302;9.306;2022-07-23T13:04:06;32.80;61.80
8707;DHT22;4390;49.302;9.306;2022-07-23T13:09:16;33.10;61.60
8707;DHT22;4390;49.302;9.306;2022-07-23T13:11:44;32.90;61.60
8707;DHT22;4390;49.302;9.306;2022-07-23T13:14:14;32.80;61.80
8707;DHT22;4390;49.302;9.306;2022-07-23T13:16:43;32.80;62.10
8707;DHT22;4390;49.302;9.306;2022-07-23T13:19:11;32.70;62.30
8707;DHT22;4390;49.302;9.306;2022-07-23T13:21:39;32.80;62.10
8707;DHT22;4390;49.302;9.306;2022-07-23T13:24:07;32.80;62.30
8707;DHT22;4390;49.302;9.306;2022-07-23T13:26:35;32.90;62.00
8707;DHT22;4390;49.302;9.306;2022-07-23T13:29:04;33.10;62.00
8707;DHT22;4390;49.302;9.306;2022-07-23T13:31:37;33.30;61.30
8707;DHT22;4390;49.302;9.306;2022-07-23T13:34:05;33.40;61.20
8707;DHT22;4390;49.302;9.306;2022-07-23T13:36:34;33.60;61.00
8707;DHT22;4390;49.302;9.306;2022-07-23T13:39:03;33.60;60.90
8707;DHT22;4390;49.302;9.306;2022-07-23T13:41:33;33.50;60.90
8707;DHT22;4390;49.302;9.306;2022-07-23T13:44:02;33.20;61.20
8707;DHT22;4390;49.302;9.306;2022-07-23T13:46:30;33.00;61.40
8707;DHT22;4390;49.302;9.306;2022-07-23T13:48:57;32.80;61.60
8707;DHT22;4390;49.302;9.306;2022-07-23T13:51:25;33.00;61.60
8707;DHT22;4390;49.302;9.306;2022-07-23T13:53:54;33.00;61.60
8707;DHT22;4390;49.302;9.306;2022-07-23T13:56:21;33.10;61.30
8707;DHT22;4390;49.302;9.306;2022-07-23T13:58:48;33.10;61.10
8707;DHT22;4390;49.302;9.306;2022-07-23T14:01:15;32.90;61.40
8707;DHT22;4390;49.302;9.306;2022-07-23T14:03:44;32.90;61.30
8707;DHT22;4390;49.302;9.306;2022-07-23T14:06:11;32.90;61.80
8707;DHT22;4390;49.302;9.306;2022-07-23T14:08:43;32.80;61.70
8707;DHT22;4390;49.302;9.306;2022-07-23T14:11:11;32.90;61.80
8707;DHT22;4390;49.302;9.306;2022-07-23T14:13:38;32.90;61.60
8707;DHT22;4390;49.302;9.306;2022-07-23T14:16:05;32.90;61.70
8707;DHT22;4390;49.302;9.306;2022-07-23T14:18:31;32.90;61.70
8707;DHT22;4390;49.302;9.306;2022-07-23T14:20:59;32.90;62.30
8707;DHT22;4390;49.302;9.306;2022-07-23T14:23:28;33.00;61.70
8707;DHT22;4390;49.302;9.306;2022-07-23T14:25:56;33.00;61.70
8707;DHT22;4390;49.302;9.306;2022-07-23T14:28:23;32.90;61.20
8707;DHT22;4390;49.302;9.306;2022-07-23T14:30:50;32.60;61.60
8707;DHT22;4390;49.302;9.306;2022-07-23T14:33:18;32.50;61.60
8707;DHT22;4390;49.302;9.306;2022-07-23T14:35:46;32.40;61.70
8707;DHT22;4390;49.302;9.306;2022-07-23T14:38:13;32.30;62.60
8707;DHT22;4390;49.302;9.306;2022-07-23T14:40:41;32.00;63.30
8707;DHT22;4390;49.302;9.306;2022-07-23T14:43:08;31.80;63.60
8707;DHT22;4390;49.302;9.306;2022-07-23T14:45:38;31.60;64.00
8707;DHT22;4390;49.302;9.306;2022-07-23T14:48:05;31.50;64.00
8707;DHT22;4390;49.302;9.306;2022-07-23T14:50:34;31.30;64.00
8707;DHT22;4390;49.302;9.306;2022-07-23T14:53:01;31.20;64.70
8707;DHT22;4390;49.302;9.306;2022-07-23T14:55:30;31.50;64.30
8707;DHT22;4390;49.302;9.306;2022-07-23T14:57:57;31.60;64.00
8707;DHT22;4390;49.302;9.306;2022-07-23T15:00:26;31.60;63.70
8707;DHT22;4390;49.302;9.306;2022-07-23T15:02:53;31.70;64.00
8707;DHT22;4390;49.302;9.306;2022-07-23T15:05:22;31.60;64.30
8707;DHT22;4390;49.302;9.306;2022-07-23T15:07:51;31.60;64.00
8707;DHT22;4390;49.302;9.306;2022-07-23T15:10:18;31.60;64.00
8707;DHT22;4390;49.302;9.306;2022-07-23T15:12:48;31.60;64.10
8707;DHT22;4390;49.302;9.306;2022-07-23T15:15:16;31.60;63.90
8707;DHT22;4390;49.302;9.306;2022-07-23T15:17:44;31.40;63.90
8707;DHT22;4390;49.302;9.306;2022-07-23T15:20:11;31.40;64.40
8707;DHT22;4390;49.302;9.306;2022-07-23T15:22:41;31.50;64.10
8707;DHT22;4390;49.302;9.306;2022-07-23T15:25:08;31.60;64.30
8707;DHT22;4390;49.302;9.306;2022-07-23T15:27:38;31.50;63.60
8707;DHT22;4390;49.302;9.306;2022-07-23T15:30:06;31.40;64.20
8707;DHT22;4390;49.302;9.306;2022-07-23T15:32:34;31.50;64.00
8707;DHT22;4390;49.302;9.306;2022-07-23T15:35:01;31.50;63.40
8707;DHT22;4390;49.302;9.306;2022-07-23T15:37:31;31.40;63.10
8707;DHT22;4390;49.302;9.306;2022-07-23T15:40:01;31.30;63.30
8707;DHT22;4390;49.302;9.306;2022-07-23T15:42:28;31.20;63.30
8707;DHT22;4390;49.302;9.306;2022-07-23T15:44:55;31.10;63.60
8707;DHT22;4390;49.302;9.306;2022-07-23T15:47:22;30.90;64.00
8707;DHT22;4390;49.302;9.306;2022-07-23T15:49:51;30.90;63.70
8707;DHT22;4390;49.302;9.306;2022-07-23T15:52:17;31.00;63.90
8707;DHT22;4390;49.302;9.306;2022-07-23T15:54:47;31.20;63.90
8707;DHT22;4390;49.302;9.306;2022-07-23T15:57:14;31.00;63.70
8707;DHT22;4390;49.302;9.306;2022-07-23T15:59:41;30.90;64.10
8707;DHT22;4390;49.302;9.306;2022-07-23T16:02:08;30.80;63.90
8707;DHT22;4390;49.302;9.306;2022-07-23T16:04:54;30.90;64.40
8707;DHT22;4390;49.302;9.306;2022-07-23T16:07:22;31.10;64.00
8707;DHT22;4390;49.302;9.306;2022-07-23T16:09:49;31.20;64.00
8707;DHT22;4390;49.302;9.306;2022-07-23T16:12:16;31.20;63.60
8707;DHT22;4390;49.302;9.306;2022-07-23T16:14:47;31.20;63.80
8707;DHT22;4390;49.302;9.306;2022-07-23T16:17:16;31.10;63.70
8707;DHT22;4390;49.302;9.306;2022-07-23T16:19:43;31.10;63.60
8707;DHT22;4390;49.302;9.306;2022-07-23T16:22:13;31.20;63.70
8707;DHT22;4390;49.302;9.306;2022-07-23T16:24:43;31.20;63.50
8707;DHT22;4390;49.302;9.306;2022-07-23T16:27:15;31.30;63.40
8707;DHT22;4390;49.302;9.306;2022-07-23T16:29:45;31.30;63.50
8707;DHT22;4390;49.302;9.306;2022-07-23T16:32:14;31.30;62.90
8707;DHT22;4390;49.302;9.306;2022-07-23T16:34:41;31.30;62.90
8707;DHT22;4390;49.302;9.306;2022-07-23T16:37:09;31.40;62.80
8707;DHT22;4390;49.302;9.306;2022-07-23T16:39:39;31.30;62.60
8707;DHT22;4390;49.302;9.306;2022-07-23T16:42:06;31.30;62.60
8707;DHT22;4390;49.302;9.306;2022-07-23T16:44:34;31.20;62.70
8707;DHT22;4390;49.302;9.306;2022-07-23T16:47:01;31.10;63.00
8707;DHT22;4390;49.302;9.306;2022-07-23T16:49:28;31.00;63.00
8707;DHT22;4390;49.302;9.306;2022-07-23T16:51:55;30.90;63.70
8707;DHT22;4390;49.302;9.306;2022-07-23T16:54:22;31.00;63.40
8707;DHT22;4390;49.302;9.306;2022-07-23T16:56:49;31.10;63.20
8707;DHT22;4390;49.302;9.306;2022-07-23T16:59:15;31.10;63.40
8707;DHT22;4390;49.302;9.306;2022-07-23T17:01:42;31.10;63.40